Main page
METAR-TAF:

METAR-TAF

Airports :

Maun Airport

Maun, Botswana

latitude: 19-59S, longitude: 023-25E, elevation: 945 m

METAR: missing

Time: 03:21 (01:21 UTC)

Forecast

The report was made 3 hours and 21 minutes ago, at 22:00 UTC
Forecast valid from 24 at 00 UTC to 24 at 24 UTC
Wind 9 kt from the East/Southeast
Visibility 10 km or more
no clouds below 1500 m and no cumulonimbus

TAF: FBMN 232200Z 2400/2424 11009KT CAVOK

Weather observations and forecasts of more than 4000 airports (METAR and TAF reports).

The available stations are represented by yellow and red dots on the map.

Hover mouse over dot to see the name of the station.

Then click to see weather observations and forecasts.

To change the map : click on the green buttons with a black cross to zoom in, on the green button with a dash to zoom out, or on the green arrows for adjacent maps.


METAR-TAF: